createdAt,value
2022-12-18T00:00:19.147Z,101927.95
2022-12-18T00:03:08.154Z,101936.98
2022-12-18T00:05:37.741Z,101940.03
2022-12-18T00:08:09.105Z,101935.83
2022-12-18T00:10:38.475Z,101950.07
2022-12-18T00:13:09.974Z,101954.53
2022-12-18T00:15:40.915Z,101956.95
2022-12-18T00:18:13.792Z,101966.38
2022-12-18T00:20:44.651Z,101963.17
2022-12-18T00:23:13.270Z,101975.86
2022-12-18T00:25:42.036Z,101980.20
2022-12-18T00:28:10.841Z,101992.70
2022-12-18T00:30:39.609Z,101993.75
2022-12-18T00:33:10.067Z,101998.74
2022-12-18T00:35:38.850Z,102008.15
2022-12-18T00:38:07.594Z,102002.64
2022-12-18T00:40:36.225Z,102008.30
2022-12-18T00:43:04.821Z,102011.20
2022-12-18T00:45:33.538Z,102013.07
2022-12-18T00:48:03.198Z,102008.23
2022-12-18T00:50:33.296Z,102014.42
2022-12-18T00:53:02.661Z,102012.09
2022-12-18T00:55:31.424Z,102015.40
2022-12-18T00:58:00.214Z,102017.55
2022-12-18T01:00:28.850Z,102019.69
2022-12-18T01:02:57.490Z,102021.67
2022-12-18T01:05:27.913Z,102027.16
2022-12-18T01:07:58.187Z,102020.55
2022-12-18T01:10:27.219Z,102023.98
2022-12-18T01:12:59.674Z,102029.83
2022-12-18T01:15:28.328Z,102029.85
2022-12-18T01:17:57.038Z,102030.56
2022-12-18T01:20:29.318Z,102032.98
2022-12-18T01:22:58.018Z,102032.98
2022-12-18T01:25:26.865Z,102030.08
2022-12-18T01:27:55.710Z,102038.95
2022-12-18T01:30:24.998Z,102039.48
2022-12-18T01:32:55.262Z,102046.52
2022-12-18T01:35:23.805Z,102048.23
2022-12-18T01:37:56.355Z,102049.44
2022-12-18T01:40:25.215Z,102050.30
2022-12-18T01:42:55.135Z,102047.39
2022-12-18T01:45:28.557Z,102042.93
2022-12-18T01:48:04.787Z,102043.13
2022-12-18T01:50:42.496Z,102048.77
2022-12-18T01:53:22.125Z,102049.98
2022-12-18T01:55:57.718Z,102051.02
2022-12-18T01:58:38.509Z,102051.52
2022-12-18T02:04:24.257Z,102059.81
2022-12-18T02:07:27.003Z,102065.20
2022-12-18T02:10:56.636Z,102069.82
2022-12-18T02:13:41.724Z,102074.27
2022-12-18T02:16:32.145Z,102077.70
2022-12-18T02:19:17.176Z,102078.20
2022-12-18T02:22:13.228Z,102082.12
2022-12-18T02:25:25.210Z,102075.64
2022-12-18T02:28:01.376Z,102089.31
2022-12-18T02:30:37.297Z,102091.53
2022-12-18T02:33:09.315Z,102101.79
2022-12-18T02:35:41.088Z,102107.42
2022-12-18T02:38:11.364Z,102112.73
2022-12-18T02:40:43.948Z,102120.59
2022-12-18T02:43:16.899Z,102115.46
2022-12-18T02:45:58.765Z,102116.65
2022-12-18T02:48:35.597Z,102123.83
2022-12-18T02:51:34.306Z,102124.35
2022-12-18T02:54:42.854Z,102139.22
2022-12-18T02:57:43.746Z,102137.33
2022-12-18T03:00:34.961Z,102142.63
2022-12-18T03:03:20.635Z,102144.34
2022-12-18T03:05:57.982Z,102148.60
2022-12-18T03:08:31.592Z,102151.69
2022-12-18T03:11:15.492Z,102151.52
2022-12-18T03:13:57.485Z,102157.15
2022-12-18T03:16:32.586Z,102156.48
2022-12-18T03:19:08.014Z,102162.12
2022-12-18T03:21:46.387Z,102161.75
2022-12-18T03:24:17.983Z,102163.64
2022-12-18T03:26:55.644Z,102166.04
2022-12-18T03:29:48.074Z,102176.29
2022-12-18T03:33:07.969Z,102174.74
2022-12-18T03:35:43.045Z,102183.45
2022-12-18T03:38:13.784Z,102184.81
2022-12-18T03:41:47.556Z,102188.75
2022-12-18T03:45:35.941Z,102202.40
2022-12-18T03:48:14.021Z,102206.83
2022-12-18T03:51:03.389Z,102215.20
2022-12-18T03:53:59.820Z,102220.48
2022-12-18T03:56:40.150Z,102228.50
2022-12-18T03:59:12.629Z,102231.40
2022-12-18T04:01:48.967Z,102240.30
2022-12-18T04:04:20.375Z,102246.13
2022-12-18T04:06:51.618Z,102255.52
2022-12-18T04:09:21.986Z,102252.27
2022-12-18T04:11:52.881Z,102258.76
2022-12-18T04:14:22.289Z,102263.88
2022-12-18T04:16:52.921Z,102270.02
2022-12-18T04:19:24.582Z,102281.63
2022-12-18T04:21:53.681Z,102285.05
2022-12-18T04:24:22.770Z,102284.38
2022-12-18T04:27:09.064Z,102288.64
2022-12-18T04:29:44.720Z,102289.34
2022-12-18T04:32:13.609Z,102297.38
2022-12-18T04:34:43.217Z,102297.71
2022-12-18T04:37:12.717Z,102305.91
2022-12-18T04:39:41.817Z,102309.53
2022-12-18T04:42:16.346Z,102310.92
2022-12-18T04:44:45.948Z,102311.44
2022-12-18T04:47:14.640Z,102312.30
2022-12-18T04:49:43.425Z,102315.70
2022-12-18T04:52:12.429Z,102324.44
2022-12-18T04:54:41.313Z,102327.00
2022-12-18T04:57:10.203Z,102328.36
2022-12-18T04:59:39.199Z,102335.21
2022-12-18T05:02:08.163Z,102338.27
2022-12-18T05:04:37.327Z,102350.38
2022-12-18T05:07:06.287Z,102357.02
2022-12-18T05:09:35.072Z,102361.77
2022-12-18T05:12:04.514Z,102367.09
2022-12-18T05:14:33.261Z,102365.92
2022-12-18T05:17:02.158Z,102370.52
2022-12-18T05:19:31.060Z,102374.45
2022-12-18T05:22:00.140Z,102381.79
2022-12-18T05:24:29.033Z,102388.63
2022-12-18T05:26:58.129Z,102392.05
2022-12-18T05:29:27.134Z,102400.11
2022-12-18T05:31:56.989Z,102400.83
2022-12-18T05:34:26.407Z,102406.30
2022-12-18T05:36:55.662Z,102411.23
2022-12-18T05:39:25.051Z,102420.32
2022-12-18T05:41:53.943Z,102425.63
2022-12-18T05:44:23.046Z,102430.41
2022-12-18T05:46:52.296Z,102438.98
2022-12-18T05:49:21.581Z,102442.27
2022-12-18T05:51:50.628Z,102444.14
2022-12-18T05:54:19.522Z,102445.68
2022-12-18T05:56:49.038Z,102454.91
2022-12-18T05:59:18.021Z,102454.55
2022-12-18T06:01:47.419Z,102453.70
2022-12-18T06:04:16.430Z,102455.44
2022-12-18T06:06:45.725Z,102463.27
2022-12-18T06:09:14.521Z,102470.11
2022-12-18T06:11:43.424Z,102476.44
2022-12-18T06:14:12.092Z,102478.14
2022-12-18T06:16:41.030Z,102480.70
2022-12-18T06:19:17.896Z,102484.45
2022-12-18T06:21:46.749Z,102485.82
2022-12-18T06:24:16.052Z,102491.16
2022-12-18T06:26:44.950Z,102488.79
2022-12-18T06:29:14.791Z,102494.41
2022-12-18T06:31:44.438Z,102506.75
2022-12-18T06:34:13.872Z,102509.48
2022-12-18T06:36:42.657Z,102509.85
2022-12-18T06:39:11.692Z,102514.13
2022-12-18T06:41:40.482Z,102519.29
2022-12-18T06:44:09.240Z,102520.85
2022-12-18T06:46:39.970Z,102529.91
2022-12-18T06:49:10.588Z,102537.63
2022-12-18T06:58:02.769Z,102553.54
2022-12-18T07:00:32.138Z,102560.86
2022-12-18T07:03:01.357Z,102557.60
2022-12-18T07:05:30.469Z,102558.45
2022-12-18T07:08:00.250Z,102562.52
2022-12-18T07:10:29.120Z,102564.57
2022-12-18T07:12:57.802Z,102559.23
2022-12-18T07:15:26.544Z,102558.66
2022-12-18T07:17:55.267Z,102566.52
2022-12-18T07:20:23.929Z,102575.21
2022-12-18T07:22:56.202Z,102590.25
2022-12-18T07:25:26.058Z,102591.77
2022-12-18T07:27:56.179Z,102590.63
2022-12-18T07:30:25.646Z,102585.88
2022-12-18T07:32:55.339Z,102586.70
2022-12-18T07:35:25.993Z,102597.52
2022-12-18T07:37:56.181Z,102593.45
2022-12-18T07:40:27.040Z,102597.05
2022-12-18T07:42:57.707Z,102601.51
2022-12-18T07:45:26.834Z,102602.70
2022-12-18T07:47:55.664Z,102609.20
2022-12-18T07:50:28.198Z,102608.88
2022-12-18T07:52:59.964Z,102619.63
2022-12-18T07:55:47.909Z,102623.52
2022-12-18T07:58:19.617Z,102623.86
2022-12-18T08:00:48.391Z,102632.97
2022-12-18T08:03:18.288Z,102640.88
2022-12-18T08:05:47.044Z,102635.66
2022-12-18T08:08:15.755Z,102642.92
2022-12-18T08:10:44.529Z,102654.78
2022-12-18T08:13:13.221Z,102657.90
2022-12-18T08:15:41.898Z,102659.30
2022-12-18T08:18:14.625Z,102664.77
2022-12-18T08:20:47.768Z,102663.92
2022-12-18T08:23:16.460Z,102678.13
2022-12-18T08:25:45.274Z,102668.31
2022-12-18T08:28:14.229Z,102668.02
2022-12-18T08:30:44.503Z,102664.98
2022-12-18T08:33:13.907Z,102667.44
2022-12-18T08:35:45.839Z,102658.38
2022-12-18T08:38:15.131Z,102664.05
2022-12-18T08:40:44.095Z,102665.23
2022-12-18T08:43:31.355Z,102668.96
2022-12-18T08:46:00.443Z,102667.29
2022-12-18T08:48:29.306Z,102679.40
2022-12-18T08:51:00.299Z,102669.14
2022-12-18T09:02:52.002Z,102678.88
2022-12-18T09:05:20.863Z,102683.52
2022-12-18T09:07:49.882Z,102683.55
2022-12-18T09:10:18.538Z,102686.66
2022-12-18T09:12:48.118Z,102688.55
2022-12-18T09:15:18.301Z,102686.83
2022-12-18T09:17:47.014Z,102692.64
2022-12-18T09:20:16.941Z,102692.29
2022-12-18T09:22:46.891Z,102692.66
2022-12-18T09:25:15.824Z,102698.66
2022-12-18T09:27:44.612Z,102699.03
2022-12-18T09:30:14.545Z,102695.48
2022-12-18T09:32:43.394Z,102703.91
2022-12-18T09:35:12.124Z,102707.44
2022-12-18T09:37:43.211Z,102698.69
2022-12-18T09:40:22.550Z,102703.09
2022-12-18T09:42:59.367Z,102710.09
2022-12-18T09:45:29.498Z,102715.72
2022-12-18T09:47:59.025Z,102724.36
2022-12-18T09:50:40.575Z,102724.14
2022-12-18T09:53:26.470Z,102739.20
2022-12-18T09:55:56.293Z,102733.50
2022-12-18T09:58:32.130Z,102734.67
2022-12-18T10:01:00.927Z,102746.77
2022-12-18T10:03:29.856Z,102750.71
2022-12-18T10:06:22.027Z,102758.23
2022-12-18T10:09:38.888Z,102760.58
2022-12-18T10:12:26.798Z,102755.33
2022-12-18T10:15:14.034Z,102751.69
2022-12-18T10:17:54.918Z,102750.35
2022-12-18T10:20:45.404Z,102754.80
2022-12-18T10:23:48.317Z,102766.26
2022-12-18T10:26:17.490Z,102772.55
2022-12-18T10:28:47.200Z,102782.66
2022-12-18T10:31:24.695Z,102775.61
2022-12-18T10:33:56.548Z,102778.71
2022-12-18T10:36:26.682Z,102779.21
2022-12-18T10:39:36.217Z,102789.88
2022-12-18T10:42:20.400Z,102791.55
2022-12-18T10:45:05.038Z,102797.84
2022-12-18T10:47:35.924Z,102802.06
2022-12-18T10:50:05.370Z,102809.08
2022-12-18T10:52:34.369Z,102812.34
2022-12-18T10:55:06.271Z,102801.48
2022-12-18T10:57:38.128Z,102799.83
2022-12-18T11:00:32.379Z,102801.79
2022-12-18T11:03:01.320Z,102801.75
2022-12-18T11:05:34.214Z,102814.59
2022-12-18T11:08:04.070Z,102814.03
2022-12-18T11:10:36.847Z,102813.49
2022-12-18T11:13:39.625Z,102822.10
2022-12-18T11:16:08.645Z,102819.22
2022-12-18T11:18:38.097Z,102817.02
2022-12-18T11:21:13.527Z,102822.97
2022-12-18T11:23:54.531Z,102823.92
2022-12-18T11:26:36.046Z,102828.51
2022-12-18T11:29:19.227Z,102835.56
2022-12-18T11:31:48.963Z,102832.14
2022-12-18T11:34:30.361Z,102829.06
2022-12-18T11:37:02.322Z,102843.48
2022-12-18T11:39:44.117Z,102836.45
2022-12-18T11:42:23.140Z,102840.02
2022-12-18T11:44:59.831Z,102848.36
2022-12-18T11:48:23.614Z,102847.20
2022-12-18T11:50:58.463Z,102856.11
2022-12-18T11:53:28.956Z,102862.83
2022-12-18T11:56:22.238Z,102866.16
2022-12-18T11:59:09.829Z,102868.19
2022-12-18T12:01:54.850Z,102868.17
2022-12-18T12:04:57.737Z,102870.36
2022-12-18T12:07:52.884Z,102875.52
2022-12-18T12:10:39.641Z,102878.77
2022-12-18T12:13:23.554Z,102879.84
2022-12-18T12:16:31.330Z,102877.73
2022-12-18T12:19:36.433Z,102882.23
2022-12-18T12:22:23.949Z,102889.71
2022-12-18T12:25:16.601Z,102898.34
2022-12-18T12:28:44.022Z,102894.87
2022-12-18T12:31:43.466Z,102890.34
2022-12-18T12:34:52.649Z,102898.95
2022-12-18T12:38:12.932Z,102905.46
2022-12-18T12:40:58.892Z,102905.41
2022-12-18T12:43:50.690Z,102911.22
2022-12-18T12:46:24.228Z,102916.20
2022-12-18T12:48:59.336Z,102915.02
2022-12-18T12:51:41.877Z,102910.43
2022-12-18T12:54:26.473Z,102918.54
2022-12-18T12:57:01.818Z,102922.45
2022-12-18T12:59:58.128Z,102928.64
2022-12-18T13:02:45.028Z,102926.34
2022-12-18T13:05:28.478Z,102932.50
2022-12-18T13:08:33.478Z,102936.33
2022-12-18T13:11:22.466Z,102945.66
2022-12-18T13:13:56.414Z,102950.42
2022-12-18T13:16:28.781Z,102950.90
2022-12-18T13:19:00.076Z,102956.10
2022-12-18T13:21:35.737Z,102959.56
2022-12-18T13:24:33.619Z,102962.02
2022-12-18T13:27:40.636Z,102959.54
2022-12-18T13:30:34.285Z,102962.30
2022-12-18T13:33:15.666Z,102970.16
2022-12-18T13:35:48.113Z,102968.02
2022-12-18T13:38:32.491Z,102976.73
2022-12-18T13:41:04.337Z,102974.73
2022-12-18T13:44:11.339Z,102976.35
2022-12-18T13:46:50.738Z,102985.79
2022-12-18T13:49:30.000Z,102990.91
2022-12-18T13:51:58.798Z,102996.59
2022-12-18T13:54:43.610Z,102999.33
2022-12-18T13:57:33.021Z,103000.35
2022-12-18T14:00:23.727Z,103001.45
2022-12-18T14:02:53.157Z,103007.17
2022-12-18T14:05:35.703Z,103004.73
2022-12-18T14:08:11.349Z,103004.56
2022-12-18T14:10:49.737Z,103000.61
2022-12-18T14:13:30.691Z,103000.94
2022-12-18T14:16:03.787Z,103005.09
2022-12-18T14:19:02.252Z,103009.67
2022-12-18T14:21:49.333Z,103014.91
2022-12-18T14:24:23.504Z,103015.44
2022-12-18T14:26:52.607Z,103022.60
2022-12-18T14:29:30.506Z,103029.20
2022-12-18T14:32:17.896Z,103020.23
2022-12-18T14:35:15.065Z,103032.11
2022-12-18T14:37:43.790Z,103036.20
2022-12-18T14:40:16.680Z,103040.30
2022-12-18T14:42:48.729Z,103042.02
2022-12-18T14:45:41.476Z,103048.23
2022-12-18T14:48:33.195Z,103049.44
2022-12-18T14:51:07.331Z,103047.09
2022-12-18T14:53:52.385Z,103053.58
2022-12-18T14:56:37.756Z,103048.55
2022-12-18T14:59:23.869Z,103056.35
2022-12-18T15:02:10.457Z,103057.52
2022-12-18T15:04:44.459Z,103066.12
2022-12-18T15:07:25.497Z,103073.03
2022-12-18T15:10:15.596Z,103067.08
2022-12-18T15:12:46.956Z,103076.50
2022-12-18T15:15:34.858Z,103083.65
2022-12-18T15:18:42.746Z,103085.13
2022-12-18T15:21:17.657Z,103080.34
2022-12-18T15:23:46.548Z,103093.99
2022-12-18T15:26:19.082Z,103101.84
2022-12-18T15:29:01.271Z,103106.64
2022-12-18T15:31:31.585Z,103106.82
2022-12-18T15:34:09.475Z,103106.73
2022-12-18T15:36:38.148Z,103105.05
2022-12-18T15:39:07.373Z,103107.34
2022-12-18T15:41:37.916Z,103103.39
2022-12-18T15:44:24.897Z,103109.55
2022-12-18T15:46:54.006Z,103119.36
2022-12-18T15:49:23.918Z,103120.48
2022-12-18T15:52:00.953Z,103119.22
2022-12-18T15:54:48.801Z,103122.40
2022-12-18T15:57:25.160Z,103120.13
2022-12-18T15:59:59.498Z,103129.31
2022-12-18T16:02:29.785Z,103136.37
2022-12-18T16:04:58.928Z,103141.00
2022-12-18T16:07:31.016Z,103147.95
2022-12-18T16:10:02.271Z,103154.89
2022-12-18T16:12:32.122Z,103160.19
2022-12-18T16:15:01.139Z,103170.23
2022-12-18T16:17:29.854Z,103169.55
2022-12-18T16:19:59.402Z,103175.70
2022-12-18T16:22:32.552Z,103182.38
2022-12-18T16:25:01.170Z,103191.17
2022-12-18T16:27:29.898Z,103197.25
2022-12-18T16:29:58.621Z,103193.09
2022-12-18T16:32:27.426Z,103192.80
2022-12-18T16:35:02.997Z,103193.42
2022-12-18T16:37:35.343Z,103193.71
2022-12-18T16:40:10.267Z,103197.80
2022-12-18T16:42:45.965Z,103199.80
2022-12-18T16:45:18.540Z,103203.31
2022-12-18T16:47:47.361Z,103203.88
2022-12-18T16:50:16.414Z,103210.17
2022-12-18T16:52:45.151Z,103197.30
2022-12-18T16:55:13.815Z,103208.27
2022-12-18T16:57:42.642Z,103212.16
2022-12-18T17:00:12.840Z,103210.55
2022-12-18T17:02:42.011Z,103213.47
2022-12-18T17:05:11.035Z,103214.61
2022-12-18T17:07:40.498Z,103220.65
2022-12-18T17:10:10.336Z,103227.16
2022-12-18T17:12:39.043Z,103229.20
2022-12-18T17:15:09.729Z,103236.22
2022-12-18T17:17:38.683Z,103235.33
2022-12-18T17:20:08.175Z,103238.86
2022-12-18T17:22:36.876Z,103241.28
2022-12-18T17:25:06.007Z,103248.54
2022-12-18T17:27:34.900Z,103257.33
2022-12-18T17:30:05.541Z,103252.75
2022-12-18T17:32:34.372Z,103259.64
2022-12-18T17:35:07.188Z,103263.41
2022-12-18T17:37:37.474Z,103266.98
2022-12-18T17:40:07.911Z,103263.48
2022-12-18T17:42:36.574Z,103260.45
2022-12-18T17:45:07.803Z,103259.17
2022-12-18T17:47:37.847Z,103260.31
2022-12-18T17:50:07.189Z,103262.51
2022-12-18T17:52:36.663Z,103262.79
2022-12-18T17:55:05.935Z,103262.41
2022-12-18T17:57:34.802Z,103263.58
2022-12-18T18:00:06.443Z,103270.39
2022-12-18T18:02:38.299Z,103280.58
2022-12-18T18:05:08.863Z,103285.48
2022-12-18T18:07:40.805Z,103291.20
2022-12-18T18:10:10.299Z,103292.27
2022-12-18T18:12:57.476Z,103297.69
2022-12-18T18:15:26.317Z,103298.70
2022-12-18T18:17:54.902Z,103299.67
2022-12-18T18:20:23.550Z,103301.06
2022-12-18T18:22:52.433Z,103299.61
2022-12-18T18:25:21.226Z,103307.77
2022-12-18T18:27:51.197Z,103317.00
2022-12-18T18:30:19.965Z,103315.44
2022-12-18T18:32:48.959Z,103324.20
2022-12-18T18:35:45.173Z,103324.73
2022-12-18T18:38:07.295Z,103324.85
2022-12-18T18:40:35.999Z,103323.95
2022-12-18T18:43:04.933Z,103326.48
2022-12-18T18:45:35.051Z,103323.59
2022-12-18T18:48:03.939Z,103324.53
2022-12-18T18:50:32.639Z,103326.86
2022-12-18T18:53:01.521Z,103335.05
2022-12-18T18:55:33.305Z,103342.93
2022-12-18T18:58:02.129Z,103341.92
2022-12-18T19:00:34.766Z,103345.55
2022-12-18T19:09:37.294Z,103340.98
2022-12-18T19:12:26.165Z,103346.39
2022-12-18T19:15:00.911Z,103344.40
2022-12-18T19:17:31.524Z,103348.64
2022-12-18T19:20:00.734Z,103346.34
2022-12-18T19:22:29.452Z,103349.86
2022-12-18T19:24:58.253Z,103349.18
2022-12-18T19:27:27.144Z,103359.74
2022-12-18T19:29:56.076Z,103361.98
2022-12-18T19:32:24.949Z,103361.04
2022-12-18T19:34:54.147Z,103359.89
2022-12-18T19:37:22.835Z,103373.86
2022-12-18T19:39:52.255Z,103368.41
2022-12-18T19:42:26.273Z,103368.38
2022-12-18T19:44:58.173Z,103371.45
2022-12-18T19:47:26.966Z,103383.92
2022-12-18T19:49:55.829Z,103384.56
2022-12-18T19:52:24.535Z,103388.27
2022-12-18T19:54:53.893Z,103391.48
2022-12-18T19:57:22.965Z,103394.89
2022-12-18T19:59:51.712Z,103394.80
2022-12-18T20:02:21.554Z,103406.09
2022-12-18T20:04:51.291Z,103407.90
2022-12-18T20:07:20.019Z,103415.27
2022-12-18T20:09:52.685Z,103416.59
2022-12-18T20:12:26.023Z,103414.62
2022-12-18T20:14:55.302Z,103428.68
2022-12-18T20:17:24.311Z,103428.38
2022-12-18T20:19:53.304Z,103428.52
2022-12-18T20:22:23.105Z,103433.09
2022-12-18T20:24:51.995Z,103444.70
2022-12-18T20:27:21.095Z,103442.68
2022-12-18T20:29:51.218Z,103442.80
2022-12-18T20:32:20.105Z,103448.44
2022-12-18T20:34:48.872Z,103445.34
2022-12-18T20:37:18.725Z,103449.98
2022-12-18T20:39:48.243Z,103451.73
2022-12-18T20:42:17.515Z,103452.13
2022-12-18T20:44:46.711Z,103448.04
2022-12-18T20:47:16.320Z,103455.61
2022-12-18T20:49:45.832Z,103457.27
2022-12-18T20:52:15.191Z,103458.23
2022-12-18T20:54:43.928Z,103457.38
2022-12-18T20:57:12.693Z,103463.59
2022-12-18T20:59:46.306Z,103462.59
2022-12-18T21:02:18.039Z,103458.39
2022-12-18T21:04:47.462Z,103462.80
2022-12-18T21:07:16.375Z,103458.56
2022-12-18T21:09:45.356Z,103460.52
2022-12-18T21:12:40.246Z,103464.88
2022-12-18T21:15:17.737Z,103466.36
2022-12-18T21:17:46.788Z,103462.38
2022-12-18T21:20:17.582Z,103460.56
2022-12-18T21:22:47.570Z,103465.70
2022-12-18T21:25:16.686Z,103460.86
2022-12-18T21:27:45.581Z,103464.75
2022-12-18T21:30:15.296Z,103467.34
2022-12-18T21:32:44.393Z,103470.20
2022-12-18T21:35:13.389Z,103466.43
2022-12-18T21:37:42.285Z,103467.03
2022-12-18T21:40:12.145Z,103464.80
2022-12-18T21:42:59.311Z,103475.35
2022-12-18T21:45:28.297Z,103475.02
2022-12-18T21:47:57.191Z,103475.52
2022-12-18T21:50:26.123Z,103476.08
2022-12-18T21:52:54.980Z,103484.02
2022-12-18T21:55:23.863Z,103485.79
2022-12-18T21:57:54.579Z,103487.95
2022-12-18T22:00:23.558Z,103491.88
2022-12-18T22:03:13.412Z,103495.41
2022-12-18T22:05:41.363Z,103492.54
2022-12-18T22:08:10.659Z,103500.70
2022-12-18T22:10:40.242Z,103501.66
2022-12-18T22:13:09.463Z,103501.36
2022-12-18T22:15:38.175Z,103503.89
2022-12-18T22:18:07.115Z,103506.62
2022-12-18T22:20:35.834Z,103507.34
2022-12-18T22:23:06.041Z,103504.59
2022-12-18T22:25:39.708Z,103506.98
2022-12-18T22:29:08.042Z,103502.70
2022-12-18T22:31:37.603Z,103504.45
2022-12-18T22:34:07.893Z,103503.16
2022-12-18T22:36:46.138Z,103503.42
2022-12-18T22:39:21.782Z,103507.38
2022-12-18T22:41:51.888Z,103508.06
2022-12-18T22:44:21.164Z,103505.59
2022-12-18T22:47:05.377Z,103504.92
2022-12-18T22:49:37.084Z,103507.61
2022-12-18T22:52:09.738Z,103516.44
2022-12-18T22:54:38.738Z,103516.75
2022-12-18T22:57:07.423Z,103518.40
2022-12-18T22:59:36.206Z,103522.70
2022-12-18T23:02:05.322Z,103522.75
2022-12-18T23:04:36.632Z,103521.41
2022-12-18T23:07:06.792Z,103524.45
2022-12-18T23:09:36.102Z,103524.73
2022-12-18T23:12:05.696Z,103516.97
2022-12-18T23:14:34.683Z,103518.66
2022-12-18T23:17:03.572Z,103529.57
2022-12-18T23:19:32.465Z,103528.64
2022-12-18T23:22:05.036Z,103527.56
2022-12-18T23:24:36.288Z,103534.53
2022-12-18T23:27:08.585Z,103542.20
2022-12-18T23:29:41.300Z,103538.11
2022-12-18T23:32:10.018Z,103543.64
2022-12-18T23:34:38.926Z,103544.14
2022-12-18T23:37:08.417Z,103543.92
2022-12-18T23:39:37.528Z,103547.02
2022-12-18T23:42:06.530Z,103549.48
2022-12-18T23:44:35.408Z,103552.14
2022-12-18T23:47:04.403Z,103546.62
2022-12-18T23:49:33.493Z,103560.69
2022-12-18T23:52:02.686Z,103559.55
2022-12-18T23:54:33.534Z,103559.86
2022-12-18T23:57:02.926Z,103568.52
2022-12-18T23:59:31.826Z,103578.35
